EZY151Z EGGD-EGPH
Flight info
| Callsign | EZY151Z |
|---|---|
| Flight time | N/A |
| Altitude | 26000 |
| Route | BCN P69 DIZIM DCT KISWO/N0385F270 DCT AVTIC DCT ANJAK/N0391F280 N38 NOKIN UP16 RIBEL DCT INPIP |
| Aircraft | A320/M-SDE2E3FGHIJ1RWXYZ/LB1 |
Departure
| Time | 2026-05-01 13:44 |
|---|---|
| Airport | Bristol Airport (EGGD) |
Arrival
| Time | N/A |
|---|---|
| Airport | Edinburgh Airport (EGPH) |
| Time | Latitude | Longitude | Altitude | Speed | Heading |
|---|---|---|---|---|---|
| 2026-05-01 13:28 | 51.38529 | -2.70765 | 623 ft | 0 kts | 86° |
| 2026-05-01 13:37 | 51.38529 | -2.70768 | 623 ft | 2 kts | 86° |
| 2026-05-01 13:37 | 51.38529 | -2.70794 | 622 ft | 4 kts | 103° |
| 2026-05-01 13:37 | 51.38548 | -2.70834 | 620 ft | 4 kts | 168° |
| 2026-05-01 13:37 | 51.38559 | -2.70837 | 612 ft | 1 kts | 176° |
| 2026-05-01 13:38 | 51.38560 | -2.70837 | 608 ft | 2 kts | 176° |
| 2026-05-01 13:42 | 51.38524 | -2.70833 | 610 ft | 13 kts | 176° |
| 2026-05-01 13:42 | 51.38476 | -2.70773 | 616 ft | 9 kts | 98° |
| 2026-05-01 13:42 | 51.38473 | -2.70675 | 610 ft | 11 kts | 87° |
| 2026-05-01 13:43 | 51.38461 | -2.70538 | 617 ft | 12 kts | 134° |
| 2026-05-01 13:43 | 51.38391 | -2.70498 | 619 ft | 9 kts | 165° |
| 2026-05-01 13:43 | 51.38347 | -2.70491 | 614 ft | 11 kts | 196° |
| 2026-05-01 13:43 | 51.38316 | -2.70630 | 609 ft | 17 kts | 266° |
| 2026-05-01 13:44 | 51.38309 | -2.70844 | 619 ft | 25 kts | 266° |
| 2026-05-01 13:44 | 51.38281 | -2.71554 | 606 ft | 104 kts | 266° |
| 2026-05-01 13:44 | 51.38240 | -2.72980 | 930 ft | 138 kts | 268° |
| 2026-05-01 13:44 | 51.38203 | -2.74522 | 1766 ft | 141 kts | 265° |
| 2026-05-01 13:45 | 51.38152 | -2.76185 | 2472 ft | 160 kts | 262° |
| 2026-05-01 13:45 | 51.38076 | -2.78108 | 3084 ft | 186 kts | 263° |
| 2026-05-01 13:45 | 51.37991 | -2.80306 | 3781 ft | 210 kts | 262° |
| 2026-05-01 13:45 | 51.37898 | -2.82770 | 4486 ft | 234 kts | 263° |
| 2026-05-01 13:46 | 51.37800 | -2.85506 | 4998 ft | 257 kts | 265° |
| 2026-05-01 13:46 | 51.37843 | -2.87478 | 5488 ft | 267 kts | 276° |
| 2026-05-01 13:46 | 51.38378 | -2.90369 | 6358 ft | 278 kts | 292° |
| 2026-05-01 13:46 | 51.39461 | -2.92982 | 7157 ft | 287 kts | 310° |
| 2026-05-01 13:47 | 51.41031 | -2.95021 | 7956 ft | 295 kts | 327° |
| 2026-05-01 13:47 | 51.42814 | -2.96699 | 8749 ft | 300 kts | 327° |
| 2026-05-01 13:47 | 51.44627 | -2.98404 | 9529 ft | 304 kts | 327° |
| 2026-05-01 13:47 | 51.46447 | -3.00162 | 10288 ft | 309 kts | 326° |
| 2026-05-01 13:48 | 51.48314 | -3.02011 | 10581 ft | 331 kts | 326° |
| 2026-05-01 13:48 | 51.50326 | -3.04030 | 10922 ft | 348 kts | 326° |
| 2026-05-01 13:48 | 51.52396 | -3.06108 | 11583 ft | 354 kts | 326° |
| 2026-05-01 13:48 | 51.54495 | -3.08212 | 12272 ft | 357 kts | 326° |
| 2026-05-01 13:49 | 51.56614 | -3.10330 | 12996 ft | 361 kts | 326° |
| 2026-05-01 13:49 | 51.58753 | -3.12470 | 13703 ft | 364 kts | 326° |
| 2026-05-01 13:49 | 51.60912 | -3.14629 | 14348 ft | 367 kts | 326° |
| 2026-05-01 13:49 | 51.63097 | -3.16811 | 14939 ft | 371 kts | 326° |
| 2026-05-01 13:50 | 51.65296 | -3.19013 | 15540 ft | 375 kts | 326° |
| 2026-05-01 13:50 | 51.67524 | -3.21245 | 16130 ft | 379 kts | 326° |
| 2026-05-01 13:50 | 51.69825 | -3.23368 | 16722 ft | 384 kts | 333° |
| 2026-05-01 13:50 | 51.72366 | -3.24780 | 17291 ft | 390 kts | 346° |
| 2026-05-01 13:51 | 51.75072 | -3.25346 | 17865 ft | 395 kts | 358° |
| 2026-05-01 13:51 | 51.77828 | -3.25025 | 18445 ft | 399 kts | 9° |
| 2026-05-01 13:51 | 51.80581 | -3.24345 | 18949 ft | 403 kts | 9° |
| 2026-05-01 13:51 | 51.83364 | -3.23649 | 19442 ft | 406 kts | 9° |
| 2026-05-01 13:52 | 51.86166 | -3.22946 | 19929 ft | 409 kts | 9° |
| 2026-05-01 13:52 | 51.88992 | -3.22239 | 20418 ft | 413 kts | 9° |
| 2026-05-01 13:52 | 51.91846 | -3.21528 | 20907 ft | 416 kts | 9° |
| 2026-05-01 13:52 | 51.94721 | -3.20818 | 21386 ft | 420 kts | 9° |
| 2026-05-01 13:53 | 51.97616 | -3.20103 | 21849 ft | 423 kts | 9° |
| 2026-05-01 13:53 | 52.03484 | -3.18667 | 22747 ft | 430 kts | 7° |
| 2026-05-01 13:53 | 52.06479 | -3.18343 | 23200 ft | 433 kts | 2° |
| 2026-05-01 13:54 | 52.09504 | -3.18119 | 23661 ft | 437 kts | 2° |
| 2026-05-01 13:54 | 52.12550 | -3.17886 | 24042 ft | 440 kts | 2° |
| 2026-05-01 13:54 | 52.15613 | -3.17647 | 24429 ft | 442 kts | 2° |
| 2026-05-01 13:54 | 52.18693 | -3.17410 | 24817 ft | 444 kts | 2° |
| 2026-05-01 13:55 | 52.21786 | -3.17176 | 25202 ft | 446 kts | 2° |
| 2026-05-01 13:55 | 52.24895 | -3.16941 | 25577 ft | 448 kts | 2° |
| 2026-05-01 13:55 | 52.28012 | -3.16705 | 25960 ft | 450 kts | 2° |
| 2026-05-01 13:55 | 52.31103 | -3.16468 | 26123 ft | 450 kts | 3° |
| 2026-05-01 13:56 | 52.34178 | -3.16228 | 26167 ft | 435 kts | 3° |
| 2026-05-01 13:56 | 52.37175 | -3.15991 | 26165 ft | 429 kts | 3° |
| 2026-05-01 13:56 | 52.40147 | -3.15756 | 26164 ft | 427 kts | 3° |
| 2026-05-01 13:56 | 52.43105 | -3.15522 | 26164 ft | 426 kts | 3° |
| 2026-05-01 13:57 | 52.46071 | -3.15290 | 26166 ft | 426 kts | 3° |
| 2026-05-01 13:57 | 52.49028 | -3.15061 | 26169 ft | 426 kts | 2° |
| 2026-05-01 13:57 | 52.51989 | -3.14830 | 26165 ft | 426 kts | 3° |
| 2026-05-01 13:57 | 52.54945 | -3.14599 | 26160 ft | 426 kts | 3° |
| 2026-05-01 13:58 | 52.57906 | -3.14369 | 26160 ft | 426 kts | 3° |
| 2026-05-01 13:58 | 52.60866 | -3.14139 | 26161 ft | 426 kts | 3° |
| 2026-05-01 13:58 | 52.63824 | -3.13909 | 26157 ft | 426 kts | 3° |
| 2026-05-01 13:58 | 52.66801 | -3.13676 | 26159 ft | 433 kts | 3° |
| 2026-05-01 13:59 | 52.69853 | -3.13314 | 26158 ft | 445 kts | 9° |
| 2026-05-01 13:59 | 52.72879 | -3.12172 | 26163 ft | 448 kts | 19° |
| 2026-05-01 13:59 | 52.75748 | -3.10213 | 26160 ft | 448 kts | 27° |
| 2026-05-01 13:59 | 52.78562 | -3.08005 | 26159 ft | 449 kts | 27° |
| 2026-05-01 14:00 | 52.81386 | -3.05793 | 26150 ft | 449 kts | 27° |
| 2026-05-01 14:00 | 52.84205 | -3.03585 | 26159 ft | 449 kts | 27° |
| 2026-05-01 14:00 | 52.87028 | -3.01374 | 26147 ft | 449 kts | 27° |
| 2026-05-01 14:00 | 52.89868 | -2.99196 | 26158 ft | 450 kts | 23° |
| 2026-05-01 14:01 | 52.92806 | -2.97386 | 26164 ft | 451 kts | 21° |
| 2026-05-01 14:01 | 52.95750 | -2.95598 | 26162 ft | 451 kts | 21° |
| 2026-05-01 14:01 | 52.98688 | -2.93809 | 26165 ft | 450 kts | 21° |
| 2026-05-01 14:01 | 53.01627 | -2.92013 | 26167 ft | 449 kts | 21° |
| 2026-05-01 14:02 | 53.04561 | -2.90207 | 26166 ft | 449 kts | 21° |
| 2026-05-01 14:02 | 53.07489 | -2.88401 | 26167 ft | 449 kts | 21° |
| 2026-05-01 14:02 | 53.10422 | -2.86591 | 26167 ft | 449 kts | 21° |
| 2026-05-01 14:02 | 53.13351 | -2.84780 | 26167 ft | 449 kts | 21° |
| 2026-05-01 14:03 | 53.16279 | -2.82967 | 26169 ft | 449 kts | 21° |
| 2026-05-01 14:03 | 53.19209 | -2.81148 | 26157 ft | 450 kts | 21° |
| 2026-05-01 14:03 | 53.22140 | -2.79330 | 26157 ft | 450 kts | 21° |
| 2026-05-01 14:03 | 53.25032 | -2.77535 | 26152 ft | 448 kts | 21° |
| 2026-05-01 14:04 | 53.27991 | -2.75689 | 26149 ft | 448 kts | 21° |
| 2026-05-01 14:04 | 53.30938 | -2.73850 | 26153 ft | 458 kts | 21° |
| 2026-05-01 14:04 | 53.33953 | -2.71967 | 26149 ft | 467 kts | 21° |
| 2026-05-01 14:04 | 53.37011 | -2.70057 | 26149 ft | 471 kts | 21° |
| 2026-05-01 14:05 | 53.40085 | -2.68140 | 26146 ft | 472 kts | 21° |
| 2026-05-01 14:05 | 53.43167 | -2.66215 | 26147 ft | 472 kts | 21° |
| 2026-05-01 14:05 | 53.46244 | -2.64287 | 26155 ft | 472 kts | 21° |
| 2026-05-01 14:05 | 53.49283 | -2.62373 | 26155 ft | 472 kts | 21° |
| 2026-05-01 14:06 | 53.52349 | -2.60437 | 26158 ft | 472 kts | 21° |
| 2026-05-01 14:06 | 53.55428 | -2.58490 | 26144 ft | 472 kts | 21° |
| 2026-05-01 14:06 | 53.58500 | -2.56542 | 26151 ft | 471 kts | 21° |
| 2026-05-01 14:06 | 53.61564 | -2.54598 | 26153 ft | 471 kts | 21° |